createdAt,value
2023-04-02T00:00:17.655Z,2.82
2023-04-02T00:05:49.526Z,2.87
2023-04-02T00:10:55.192Z,2.90
2023-04-02T00:15:59.986Z,2.86
2023-04-02T00:21:11.853Z,2.81
2023-04-02T00:26:37.784Z,2.83
2023-04-02T00:31:44.885Z,2.88
2023-04-02T00:36:50.945Z,2.90
2023-04-02T00:42:04.546Z,2.85
2023-04-02T00:47:16.559Z,2.81
2023-04-02T00:52:24.789Z,2.81
2023-04-02T00:57:29.484Z,2.83
2023-04-02T01:02:37.786Z,2.84
2023-04-02T01:08:00.936Z,2.80
2023-04-02T01:13:19.409Z,2.76
2023-04-02T01:18:36.273Z,2.76
2023-04-02T01:23:52.300Z,2.78
2023-04-02T01:29:03.055Z,2.83
2023-04-02T01:34:09.761Z,2.85
2023-04-02T01:39:26.839Z,2.84
2023-04-02T01:44:35.817Z,2.80
2023-04-02T01:49:42.037Z,2.78
2023-04-02T01:54:47.207Z,2.78
2023-04-02T01:59:51.777Z,2.81
2023-04-02T02:04:55.888Z,2.87
2023-04-02T02:09:59.843Z,2.91
2023-04-02T02:15:04.424Z,2.90
2023-04-02T02:20:10.833Z,2.86
2023-04-02T02:25:18.274Z,2.83
2023-04-02T02:30:26.467Z,2.79
2023-04-02T02:35:35.342Z,2.72
2023-04-02T02:40:44.933Z,2.67
2023-04-02T02:45:50.837Z,2.59
2023-04-02T02:50:56.182Z,2.52
2023-04-02T02:56:01.384Z,2.50
2023-04-02T03:01:12.967Z,2.55
2023-04-02T03:06:20.122Z,2.57
2023-04-02T03:11:34.729Z,2.56
2023-04-02T03:16:43.666Z,2.54
2023-04-02T03:21:52.705Z,2.48
2023-04-02T03:27:01.445Z,2.44
2023-04-02T03:32:11.735Z,2.42
2023-04-02T03:37:20.517Z,2.40
2023-04-02T03:42:25.761Z,2.37
2023-04-02T03:47:34.791Z,2.34
2023-04-02T03:52:38.985Z,2.28
2023-04-02T03:57:53.908Z,2.21
2023-04-02T04:03:04.426Z,2.18
2023-04-02T04:08:14.047Z,2.18
2023-04-02T04:13:23.550Z,2.16
2023-04-02T04:18:37.348Z,2.12
2023-04-02T04:23:50.954Z,2.04
2023-04-02T04:29:05.795Z,1.98
2023-04-02T04:34:17.646Z,1.96
2023-04-02T04:39:29.515Z,1.97
2023-04-02T04:44:40.358Z,1.99
2023-04-02T04:49:49.414Z,1.98
2023-04-02T04:54:53.576Z,1.97
2023-04-02T05:00:07.456Z,1.93
2023-04-02T05:05:20.966Z,1.94
2023-04-02T05:10:33.199Z,1.97
2023-04-02T05:15:43.531Z,1.99
2023-04-02T05:20:53.423Z,2.00
2023-04-02T05:26:06.501Z,1.98
2023-04-02T05:31:16.952Z,1.94
2023-04-02T05:36:22.753Z,1.94
2023-04-02T05:41:36.307Z,2.00
2023-04-02T05:46:49.264Z,2.03
2023-04-02T05:51:57.902Z,2.04
2023-04-02T05:57:04.599Z,2.03
2023-04-02T06:02:19.110Z,2.07
2023-04-02T06:07:27.865Z,2.15
2023-04-02T06:12:42.059Z,2.21
2023-04-02T06:17:51.121Z,2.24
2023-04-02T06:23:00.474Z,2.27
2023-04-02T06:28:11.919Z,2.28
2023-04-02T06:33:24.829Z,2.31
2023-04-02T06:38:31.570Z,2.36
2023-04-02T06:43:45.919Z,2.39
2023-04-02T06:49:01.810Z,2.41
2023-04-02T06:54:05.913Z,2.42
2023-04-02T06:59:14.427Z,2.42
2023-04-02T07:04:32.681Z,2.44
2023-04-02T07:09:37.714Z,2.47
2023-04-02T07:14:43.518Z,2.51
2023-04-02T07:19:49.130Z,2.54
2023-04-02T07:24:55.067Z,2.54
2023-04-02T07:29:58.845Z,2.54
2023-04-02T07:35:03.358Z,2.56
2023-04-02T07:40:17.366Z,2.61
2023-04-02T07:45:22.673Z,2.68
2023-04-02T07:50:30.475Z,2.75
2023-04-02T07:55:34.673Z,2.82
2023-04-02T08:00:38.798Z,2.91
2023-04-02T08:05:42.723Z,3.01
2023-04-02T08:10:46.500Z,3.15
2023-04-02T08:15:50.439Z,3.27
2023-04-02T08:20:54.349Z,3.34
2023-04-02T08:25:58.219Z,3.35
2023-04-02T08:31:04.105Z,3.37
2023-04-02T08:36:14.658Z,3.40
2023-04-02T08:41:27.428Z,3.44
2023-04-02T08:46:37.322Z,3.59
2023-04-02T08:51:41.295Z,3.80
2023-04-02T08:56:52.068Z,3.92
2023-04-02T09:02:03.925Z,4.01
2023-04-02T09:07:14.179Z,4.15
2023-04-02T09:12:20.675Z,4.29
2023-04-02T09:17:27.632Z,4.47
2023-04-02T09:22:38.008Z,4.60
2023-04-02T09:27:42.772Z,4.65
2023-04-02T09:32:50.585Z,4.69
2023-04-02T09:38:16.858Z,4.76
2023-04-02T09:43:22.357Z,4.81
2023-04-02T09:48:30.156Z,4.84
2023-04-02T09:53:37.930Z,4.78
2023-04-02T09:58:44.034Z,4.78
2023-04-02T10:03:48.082Z,4.84
2023-04-02T10:08:52.314Z,4.90
2023-04-02T10:14:00.474Z,4.95
2023-04-02T10:19:07.164Z,4.99
2023-04-02T10:24:13.867Z,5.05
2023-04-02T10:29:34.906Z,5.08
2023-04-02T10:34:47.421Z,5.11
2023-04-02T10:39:56.721Z,5.11
2023-04-02T10:45:05.530Z,5.13
2023-04-02T10:50:26.132Z,5.12
2023-04-02T10:55:33.917Z,5.09
2023-04-02T11:00:43.595Z,5.16
2023-04-02T11:05:49.742Z,5.21
2023-04-02T11:10:58.778Z,5.22
2023-04-02T11:16:03.733Z,5.22
2023-04-02T11:21:31.444Z,5.19
2023-04-02T11:26:41.015Z,5.17
2023-04-02T11:31:46.116Z,5.15
2023-04-02T11:37:07.907Z,5.17
2023-04-02T11:42:32.452Z,5.16
2023-04-02T11:47:36.235Z,5.17
2023-04-02T11:52:52.518Z,5.16
2023-04-02T11:58:30.263Z,5.18
2023-04-02T12:03:58.664Z,5.21
2023-04-02T12:09:18.121Z,5.30
2023-04-02T12:14:45.903Z,5.40
2023-04-02T12:19:52.987Z,5.43
2023-04-02T12:25:04.125Z,5.45
2023-04-02T12:30:18.138Z,5.46
2023-04-02T12:35:33.523Z,5.52
2023-04-02T12:40:37.444Z,5.49
2023-04-02T12:45:41.526Z,5.53
2023-04-02T12:50:45.483Z,5.61
2023-04-02T12:55:50.859Z,5.63
2023-04-02T13:01:12.452Z,5.59
2023-04-02T13:06:25.916Z,5.60
2023-04-02T13:11:37.810Z,5.68
2023-04-02T13:16:41.918Z,5.72
2023-04-02T13:21:46.686Z,5.74
2023-04-02T13:26:53.601Z,5.74
2023-04-02T13:31:59.783Z,5.68
2023-04-02T13:37:03.687Z,5.65
2023-04-02T13:42:11.194Z,5.58
2023-04-02T13:47:16.632Z,5.56
2023-04-02T13:52:20.375Z,5.55
2023-04-02T13:57:24.401Z,5.53
2023-04-02T14:02:29.719Z,5.56
2023-04-02T14:07:54.701Z,5.59
2023-04-02T14:13:12.249Z,5.66
2023-04-02T14:18:40.807Z,5.70
2023-04-02T14:24:01.074Z,5.73
2023-04-02T14:29:11.349Z,5.69
2023-04-02T14:34:26.609Z,5.65
2023-04-02T14:39:42.174Z,5.55
2023-04-02T14:44:52.875Z,5.55
2023-04-02T14:50:02.703Z,5.62
2023-04-02T14:55:14.397Z,5.55
2023-04-02T15:00:32.800Z,5.39
2023-04-02T15:05:43.823Z,5.27
2023-04-02T15:11:01.944Z,5.17
2023-04-02T15:16:14.568Z,5.11
2023-04-02T15:21:49.833Z,5.07
2023-04-02T15:27:24.503Z,4.99
2023-04-02T15:32:40.265Z,4.94
2023-04-02T15:37:52.094Z,4.94
2023-04-02T15:43:07.619Z,4.89
2023-04-02T15:48:48.737Z,4.74
2023-04-02T15:54:01.831Z,4.61
2023-04-02T15:59:29.776Z,4.45
2023-04-02T16:04:45.754Z,4.31
2023-04-02T16:09:57.712Z,4.23
2023-04-02T16:15:14.407Z,4.18
2023-04-02T16:20:23.547Z,4.14
2023-04-02T16:25:31.582Z,4.09
2023-04-02T16:30:38.921Z,4.02
2023-04-02T16:35:56.257Z,3.94
2023-04-02T16:41:09.428Z,3.85
2023-04-02T16:46:38.364Z,3.75
2023-04-02T16:51:52.450Z,3.66
2023-04-02T16:57:16.727Z,3.55
2023-04-02T17:02:42.584Z,3.44
2023-04-02T17:07:52.312Z,3.32
2023-04-02T17:13:06.019Z,3.21
2023-04-02T17:18:17.121Z,3.12
2023-04-02T17:23:22.377Z,3.01
2023-04-02T17:28:36.187Z,2.91
2023-04-02T17:33:40.249Z,2.82
2023-04-02T17:38:52.876Z,2.73
2023-04-02T17:44:05.369Z,2.64
2023-04-02T17:49:24.467Z,2.55
2023-04-02T17:54:42.970Z,2.48
2023-04-02T18:00:11.836Z,2.40
2023-04-02T18:05:28.812Z,2.32
2023-04-02T18:10:38.621Z,2.24
2023-04-02T18:16:06.467Z,2.17
2023-04-02T18:21:21.403Z,2.10
2023-04-02T18:26:38.087Z,2.02
2023-04-02T18:31:50.208Z,1.95
2023-04-02T18:37:05.471Z,1.88
2023-04-02T18:42:19.208Z,1.83
2023-04-02T18:47:30.597Z,1.78
2023-04-02T18:52:35.681Z,1.72
2023-04-02T18:57:42.847Z,1.66
2023-04-02T19:02:50.842Z,1.60
2023-04-02T19:08:06.345Z,1.55
2023-04-02T19:13:30.394Z,1.51
2023-04-02T19:19:07.357Z,1.47
2023-04-02T19:24:35.764Z,1.42
2023-04-02T19:29:58.594Z,1.36
2023-04-02T19:35:22.093Z,1.32
2023-04-02T19:40:40.168Z,1.27
2023-04-02T19:45:52.274Z,1.23
2023-04-02T19:50:56.199Z,1.23
2023-04-02T19:56:02.115Z,1.24
2023-04-02T20:01:07.264Z,1.24
2023-04-02T20:06:11.536Z,1.21
2023-04-02T20:11:15.897Z,1.16
2023-04-02T20:16:22.914Z,1.10
2023-04-02T20:21:27.048Z,1.03
2023-04-02T20:26:30.859Z,0.96
2023-04-02T20:31:36.010Z,0.91
2023-04-02T20:36:39.823Z,0.86
2023-04-02T20:41:43.623Z,0.85
2023-04-02T20:46:48.687Z,0.87
2023-04-02T20:51:56.102Z,0.88
2023-04-02T20:57:00.226Z,0.86
2023-04-02T21:02:06.827Z,0.84
2023-04-02T21:07:10.936Z,0.78
2023-04-02T21:12:16.225Z,0.72
2023-04-02T21:17:20.072Z,0.67
2023-04-02T21:22:24.128Z,0.61
2023-04-02T21:27:34.750Z,0.56
2023-04-02T21:32:39.077Z,0.52
2023-04-02T21:37:44.222Z,0.51
2023-04-02T21:42:48.830Z,0.53
2023-04-02T21:47:52.603Z,0.55
2023-04-02T21:52:56.494Z,0.53
2023-04-02T21:58:00.274Z,0.49
2023-04-02T22:03:04.292Z,0.43
2023-04-02T22:08:07.998Z,0.37
2023-04-02T22:13:11.724Z,0.30
2023-04-02T22:18:15.582Z,0.24
2023-04-02T22:23:19.594Z,0.19
2023-04-02T22:28:25.858Z,0.16
2023-04-02T22:33:31.729Z,0.18
2023-04-02T22:38:36.423Z,0.20
2023-04-02T22:43:43.327Z,0.23
2023-04-02T22:48:48.154Z,0.23
2023-04-02T22:53:54.052Z,0.21
2023-04-02T22:58:57.922Z,0.16
2023-04-02T23:04:01.864Z,0.10
2023-04-02T23:09:05.895Z,0.04
2023-04-02T23:14:10.133Z,-0.01
2023-04-02T23:19:13.818Z,-0.05
2023-04-02T23:24:17.799Z,-0.06
2023-04-02T23:29:21.583Z,-0.05
2023-04-02T23:34:25.376Z,-0.01
2023-04-02T23:39:29.504Z,0.01
2023-04-02T23:44:33.265Z,0.00
2023-04-02T23:49:36.956Z,-0.04
2023-04-02T23:54:40.784Z,-0.10
2023-04-02T23:59:44.579Z,-0.15
